Time;durP1;ratioP1;P1;durP2;ratioP2;P2;SDS_P1;SDS_P2;PMS_P1;PMS_P2;Temp;Humidity;BMP_temperature;BMP_pressure;BME280_temperature;BME280_humidity;BME280_pressure;Samples;Min_cycle;Max_cycle;Signal;HPM_P1;HPM_P2
2022/03/27 00:01:45;;;;;;;7.63;3.85;;;;;;;;;;5051334;28;20049;-64
2022/03/27 00:04:11;;;;;;;6.43;3.42;;;;;;;;;;5048190;28;20045;-65
2022/03/27 00:06:37;;;;;;;7.38;4.38;;;;;;;;;;5051111;28;20357;-65
2022/03/27 00:09:04;;;;;;;7.97;5.13;;;;;;;;;;5051784;28;20044;-64
2022/03/27 00:11:30;;;;;;;7.38;3.83;;;;;;;;;;5048505;28;20128;-65
2022/03/27 00:13:58;;;;;;;5.97;3.58;;;;;;;;;;5032566;28;20040;-64
2022/03/27 00:16:24;;;;;;;6.55;3.65;;;;;;;;;;5054548;28;20041;-64
2022/03/27 00:18:50;;;;;;;5.57;3.42;;;;;;;;;;5049349;28;20037;-64
2022/03/27 00:21:16;;;;;;;5.75;3.40;;;;;;;;;;5036511;28;20474;-64
2022/03/27 00:23:43;;;;;;;6.00;3.53;;;;;;;;;;5050912;28;20127;-64
2022/03/27 00:26:09;;;;;;;5.30;3.25;;;;;;;;;;5051311;28;20068;-64
2022/03/27 00:28:35;;;;;;;6.55;3.65;;;;;;;;;;5053611;28;20045;-64
2022/03/27 00:31:04;;;;;;;6.32;3.45;;;;;;;;;;5053391;28;20070;-64
2022/03/27 00:33:30;;;;;;;6.22;3.75;;;;;;;;;;5032961;28;20048;-64
2022/03/27 00:35:56;;;;;;;7.68;3.80;;;;;;;;;;5047577;28;20480;-64
2022/03/27 00:38:22;;;;;;;6.55;3.60;;;;;;;;;;5047482;28;20091;-64
2022/03/27 00:40:51;;;;;;;6.18;3.53;;;;;;;;;;5032142;28;20041;-64
2022/03/27 00:43:18;;;;;;;7.78;4.00;;;;;;;;;;5052828;28;20055;-64
2022/03/27 00:45:44;;;;;;;10.52;5.13;;;;;;;;;;5049978;28;20139;-63
2022/03/27 00:48:10;;;;;;;13.30;5.85;;;;;;;;;;5052432;28;20064;-64
2022/03/27 00:50:37;;;;;;;8.98;4.40;;;;;;;;;;5050145;28;20067;-63
2022/03/27 00:53:03;;;;;;;9.93;5.13;;;;;;;;;;5053538;28;20055;-63
2022/03/27 00:55:29;;;;;;;7.35;4.18;;;;;;;;;;5051563;28;20051;-64
2022/03/27 00:57:55;;;;;;;6.82;4.03;;;;;;;;;;5050600;28;20041;-64
2022/03/27 01:00:48;;;;;;;6.97;3.65;;;6.10;99.90;;;;;;5052245;28;20060;-64
2022/03/27 01:03:16;;;;;;;8.30;3.60;;;;;;;;;;4990254;28;20144;-63
2022/03/27 01:05:43;;;;;;;7.57;3.97;;;;;;;;;;4988512;28;20057;-63
2022/03/27 01:08:10;;;;;;;9.95;5.70;;;;;;;;;;4972926;28;20438;-63
2022/03/27 01:10:36;;;;;;;6.72;4.07;;;;;;;;;;4992292;28;20081;-63
2022/03/27 01:13:04;;;;;;;8.48;4.05;;;;;;;;;;4975108;28;20046;-64
2022/03/27 01:15:42;;;;;;;8.05;4.03;;;;;;;;;;4991479;28;20057;-63
2022/03/27 01:18:08;;;;;;;8.90;4.43;;;;;;;;;;4990623;28;20479;-63
2022/03/27 01:20:39;;;;;;;7.57;4.53;;;;;;;;;;4988167;28;20049;-63
2022/03/27 01:23:09;;;;;;;6.13;3.63;;;;;;;;;;4971111;28;20078;-63
2022/03/27 01:25:35;;;;;;;7.57;4.00;;;;;;;;;;4980915;28;20038;-63
2022/03/27 01:28:02;;;;;;;7.35;3.95;;;;;;;;;;4975064;28;20081;-63
2022/03/27 01:30:28;;;;;;;7.43;4.65;;;;;;;;;;4973964;28;20048;-63
2022/03/27 01:32:54;;;;;;;8.30;4.40;;;;;;;;;;4975314;28;20586;-64
2022/03/27 01:35:20;;;;;;;9.45;4.47;;;;;;;;;;4970362;28;20047;-64
2022/03/27 01:37:49;;;;;;;7.22;4.07;;;;;;;;;;4974276;28;20057;-63
2022/03/27 01:40:16;;;;;;;6.57;3.85;;;;;;;;;;5025697;28;20053;-63
2022/03/27 01:42:42;;;;;;;13.65;4.90;;;;;;;;;;5052533;28;20075;-63
2022/03/27 01:45:09;;;;;;;7.95;4.68;;;;;;;;;;5048282;28;20125;-64
2022/03/27 01:47:36;;;;;;;13.02;4.70;;;;;;;;;;5051154;28;20029;-64
2022/03/27 01:50:02;;;;;;;9.50;4.88;;;;;;;;;;5047310;28;20037;-64
2022/03/27 01:52:28;;;;;;;11.35;4.97;;;;;;;;;;5052403;28;20090;-64
2022/03/27 01:54:54;;;;;;;10.13;4.43;;;;;;;;;;5047217;28;20063;-64
2022/03/27 01:57:20;;;;;;;10.57;4.28;;;;;;;;;;5049988;28;20041;-64
2022/03/27 01:59:46;;;;;;;11.13;4.90;;;;;;;;;;5064050;28;20067;-64
2022/03/27 02:02:12;;;;;;;10.45;5.40;;;;;;;;;;5051631;28;20041;-64
2022/03/27 02:04:38;;;;;;;13.57;5.30;;;;;;;;;;5048661;28;20503;-64
2022/03/27 02:07:04;;;;;;;9.73;4.53;;;;;;;;;;5050955;28;20048;-64
2022/03/27 02:09:30;;;;;;;11.00;4.53;;;;;;;;;;5052362;28;20154;-64
2022/03/27 02:11:56;;;;;;;13.23;5.40;;;;;;;;;;5052606;28;20127;-64
2022/03/27 02:14:22;;;;;;;11.15;5.63;;;;;;;;;;5050560;28;20132;-64
2022/03/27 02:16:49;;;;;;;13.18;5.53;;;;;;;;;;5033639;28;20417;-64
2022/03/27 02:19:15;;;;;;;11.35;5.30;;;;;;;;;;5050027;28;20127;-63
2022/03/27 02:21:41;;;;;;;14.88;5.18;;;;;;;;;;5035598;28;20087;-63
2022/03/27 02:24:08;;;;;;;16.50;5.25;;;;;;;;;;5049838;28;20041;-64
2022/03/27 02:26:35;;;;;;;14.23;6.07;;;;;;;;;;5032264;28;20457;-64
2022/03/27 02:29:01;;;;;;;13.27;5.78;;;;;;;;;;5053557;28;20083;-63
2022/03/27 02:31:27;;;;;;;17.05;5.93;;;;;;;;;;5052937;28;20385;-63
2022/03/27 02:33:53;;;;;;;23.83;6.38;;;;;;;;;;5030723;28;20131;-64
2022/03/27 02:36:19;;;;;;;15.20;6.20;;;;;;;;;;5047439;28;20041;-63
2022/03/27 02:38:45;;;;;;;16.45;5.75;;;;;;;;;;5047823;28;20051;-63
2022/03/27 02:41:12;;;;;;;16.70;6.00;;;;;;;;;;5047984;28;20041;-64
2022/03/27 02:43:38;;;;;;;23.33;6.82;;;;;;;;;;5049947;28;20037;-64
2022/03/27 02:46:07;;;;;;;13.65;5.63;;;;;;;;;;5053735;28;20045;-63
2022/03/27 02:48:33;;;;;;;15.98;5.88;;;;;;;;;;5047565;28;20041;-63
2022/03/27 02:50:59;;;;;;;14.52;6.82;;;;;;;;;;5036787;28;20080;-63
2022/03/27 02:53:26;;;;;;;12.68;5.95;;;;;;;;;;5055127;28;20041;-64
2022/03/27 02:55:52;;;;;;;12.55;5.88;;;;;;;;;;5056523;28;20076;-63
2022/03/27 02:58:19;;;;;;;15.50;6.75;;;;;;;;;;5050757;28;20102;-64
2022/03/27 03:00:45;;;;;;;16.23;6.53;;;;;;;;;;5052611;28;20040;-64
2022/03/27 03:03:11;;;;;;;13.57;5.75;;;;;;;;;;5055428;28;20052;-63
2022/03/27 03:05:40;;;;;;;14.77;6.38;;;;;;;;;;5052447;28;20041;-63
2022/03/27 03:08:11;;;;;;;17.15;6.32;;;;;;;;;;5038992;28;20053;-63
2022/03/27 03:10:38;;;;;;;15.93;5.40;;;;;;;;;;5036819;28;20124;-64
2022/03/27 03:13:04;;;;;;;14.27;6.68;;;;;;;;;;5030215;28;20045;-64
2022/03/27 03:15:30;;;;;;;16.17;6.22;;;;;;;;;;5014197;28;20477;-64
2022/03/27 03:17:57;;;;;;;17.40;6.63;;;;;;;;;;5052731;28;20444;-63
2022/03/27 03:20:23;;;;;;;17.55;6.32;;;;;;;;;;5037411;28;20045;-64
2022/03/27 03:22:49;;;;;;;15.05;7.10;;;;;;;;;;5042838;28;20042;-64
2022/03/27 03:25:15;;;;;;;19.58;6.22;;;;;;;;;;5051150;28;20045;-64
2022/03/27 03:27:41;;;;;;;13.25;6.10;;;;;;;;;;5053169;28;20055;-64
2022/03/27 03:30:07;;;;;;;12.20;6.28;;;;;;;;;;5053582;28;20037;-63
2022/03/27 03:32:35;;;;;;;12.85;6.93;;;;;;;;;;5052612;28;20049;-64
2022/03/27 03:35:02;;;;;;;13.82;6.13;;;;;;;;;;5055311;28;20064;-64
2022/03/27 03:37:28;;;;;;;15.23;6.78;;;;;;;;;;5049191;28;20056;-63
2022/03/27 03:39:54;;;;;;;25.02;7.20;;;;;;;;;;5055411;28;20045;-63
2022/03/27 03:42:20;;;;;;;19.35;7.20;;;;;;;;;;5054258;28;20041;-63
2022/03/27 03:44:46;;;;;;;14.88;7.00;;;;;;;;;;5057951;28;20028;-63
2022/03/27 03:47:12;;;;;;;17.17;7.88;;;;;;;;;;5051017;28;20502;-64
2022/03/27 03:49:38;;;;;;;28.02;9.00;;;;;;;;;;5057740;28;20087;-63
2022/03/27 03:52:04;;;;;;;17.60;7.43;;;;;;;;;;5071057;28;20124;-64
2022/03/27 03:54:30;;;;;;;15.82;7.13;;;;;;;;;;5048754;28;20048;-63
2022/03/27 03:56:56;;;;;;;16.98;7.20;;;;;;;;;;5018934;28;20029;-63
2022/03/27 03:59:22;;;;;;;16.73;6.95;;;;;;;;;;5045530;28;20037;-63
2022/03/27 04:01:48;;;;;;;17.85;7.97;;;;;;;;;;5038904;28;20362;-63
2022/03/27 04:04:14;;;;;;;19.17;7.80;;;;;;;;;;5055789;28;20127;-64
2022/03/27 04:06:41;;;;;;;17.80;8.18;;;;;;;;;;5065020;28;20047;-63
2022/03/27 04:09:07;;;;;;;18.15;7.32;;;;;;;;;;5046154;28;20076;-63
2022/03/27 04:11:33;;;;;;;18.00;7.45;;;;;;;;;;5034946;28;20045;-64
2022/03/27 04:13:59;;;;;;;20.83;7.93;;;;;;;;;;5047522;28;20045;-63
2022/03/27 04:16:25;;;;;;;17.90;8.00;;;;;;;;;;5054016;28;20076;-63
2022/03/27 04:18:51;;;;;;;21.00;7.90;;;;;;;;;;5049405;28;20045;-64
2022/03/27 04:21:17;;;;;;;17.67;7.60;;;;;;;;;;5036179;28;20041;-63
2022/03/27 04:23:43;;;;;;;17.45;7.43;;;;;;;;;;5052105;28;20094;-63
2022/03/27 04:26:09;;;;;;;19.88;7.40;;;;;;;;;;5053753;28;20045;-64
2022/03/27 04:28:35;;;;;;;17.00;8.73;;;;;;;;;;5051854;28;20574;-64
2022/03/27 04:31:01;;;;;;;21.85;7.03;;;;;;;;;;5054976;28;20084;-64
2022/03/27 04:33:27;;;;;;;19.42;6.93;;;;;;;;;;5054854;28;20060;-64
2022/03/27 04:35:53;;;;;;;16.75;6.78;;;;;;;;;;5052815;28;21886;-65
2022/03/27 04:38:19;;;;;;;16.20;6.75;;;;;;;;;;5053023;28;20549;-65
2022/03/27 04:40:45;;;;;;;23.48;7.00;;;;;;;;;;5036914;28;20072;-64
2022/03/27 04:43:12;;;;;;;19.98;6.78;;;;;;;;;;5068407;28;20041;-64
2022/03/27 04:45:38;;;;;;;15.40;7.07;;;;;;;;;;5038264;28;20099;-65
2022/03/27 04:48:04;;;;;;;20.65;8.43;;;;;;;;;;5052159;28;20118;-65
2022/03/27 04:50:31;;;;;;;16.20;6.63;;;;;;;;;;5053475;28;20064;-64
2022/03/27 04:52:57;;;;;;;18.17;6.95;;;;;;;;;;5053127;28;20127;-64
2022/03/27 04:55:23;;;;;;;21.58;7.00;;;;;;;;;;5047349;28;20044;-64
2022/03/27 04:57:49;;;;;;;23.63;7.30;;;;;;;;;;5003952;28;20033;-65
2022/03/27 05:00:15;;;;;;;23.45;7.55;;;;;;;;;;5051064;28;20091;-65
2022/03/27 05:02:42;;;;;;;19.58;8.10;;;;;;;;;;5054749;28;20048;-64
2022/03/27 05:05:10;;;;;;;19.98;7.05;;;;;;;;;;5035268;28;20075;-65
2022/03/27 05:07:37;;;;;;;19.52;7.70;;;;;;;;;;5039706;28;20048;-65
2022/03/27 05:10:04;;;;;;;19.17;7.05;;;;;;;;;;5057445;28;20541;-65
2022/03/27 05:12:30;;;;;;;26.33;7.88;;;;;;;;;;5054005;28;20076;-64
2022/03/27 05:14:56;;;;;;;20.05;7.22;;;;;;;;;;5057358;28;20104;-64
2022/03/27 05:17:22;;;;;;;26.27;7.32;;;;;;;;;;5035734;28;20052;-64
2022/03/27 05:19:48;;;;;;;34.10;8.18;;;;;;;;;;5054048;28;20147;-64
2022/03/27 05:22:15;;;;;;;18.58;7.28;;;;;;;;;;5054543;28;20089;-64
2022/03/27 05:24:41;;;;;;;26.05;7.15;;;;;;;;;;5053011;28;20040;-64
2022/03/27 05:27:07;;;;;;;26.75;7.82;;;;;;;;;;5058844;28;20085;-64
2022/03/27 05:29:33;;;;;;;24.33;8.05;;;;;;;;;;5063046;28;20048;-64
2022/03/27 05:31:59;;;;;;;23.50;6.50;;;;;;;;;;5058514;28;20040;-64
2022/03/27 05:34:25;;;;;;;24.38;8.82;;;;;;;;;;5052819;28;20059;-64
2022/03/27 05:36:51;;;;;;;20.40;6.88;;;;;;;;;;5052529;28;20056;-64
2022/03/27 05:39:17;;;;;;;32.55;7.90;;;;;;;;;;5058319;28;20085;-64
2022/03/27 05:41:44;;;;;;;26.55;7.03;;;;;;;;;;5066548;28;20857;-64
2022/03/27 05:44:10;;;;;;;31.73;7.93;;;;;;;;;;5052989;28;20045;-64
2022/03/27 05:46:37;;;;;;;28.20;8.38;;;;;;;;;;5035241;28;20037;-64
2022/03/27 05:49:03;;;;;;;23.90;7.63;;;;;;;;;;5051284;28;20087;-64
2022/03/27 05:51:29;;;;;;;38.22;9.23;;;;;;;;;;5034615;28;20098;-64
2022/03/27 05:53:55;;;;;;;27.42;8.10;;;;;;;;;;5037081;28;20465;-63
2022/03/27 05:56:21;;;;;;;27.45;7.40;;;;;;;;;;5052881;28;20051;-64
2022/03/27 05:58:47;;;;;;;25.73;7.22;;;;;;;;;;5053028;28;20116;-64
2022/03/27 06:01:14;;;;;;;29.42;7.43;;;;;;;;;;5050720;28;20055;-64
2022/03/27 06:03:40;;;;;;;38.08;7.45;;;;;;;;;;5052574;28;20099;-64
2022/03/27 06:06:06;;;;;;;29.23;7.32;;;;;;;;;;5050566;28;20037;-65
2022/03/27 06:08:33;;;;;;;34.00;8.75;;;;;;;;;;5054345;28;20090;-64
2022/03/27 06:10:59;;;;;;;23.58;7.88;;;;;;;;;;5049702;28;20384;-64
2022/03/27 06:13:25;;;;;;;28.77;7.70;;;;;;;;;;5034704;28;20073;-64
2022/03/27 06:15:51;;;;;;;26.63;6.63;;;;;;;;;;5065103;28;20083;-64
2022/03/27 06:18:17;;;;;;;27.20;6.97;;;;;;;;;;5040622;28;20041;-64
2022/03/27 06:20:43;;;;;;;20.90;6.55;;;;;;;;;;5065953;28;20045;-64
2022/03/27 06:23:10;;;;;;;32.63;7.63;;;;;;;;;;5038105;28;20041;-64
2022/03/27 06:25:38;;;;;;;24.75;7.70;;;;;;;;;;5057478;28;20129;-65
2022/03/27 06:28:04;;;;;;;26.25;6.97;;;;;;;;;;5054035;28;20041;-64
2022/03/27 06:30:30;;;;;;;28.77;6.72;;;;;;;;;;5056403;28;21447;-64
2022/03/27 06:32:57;;;;;;;25.67;7.97;;;;;;;;;;5037791;28;20380;-65
2022/03/27 06:35:24;;;;;;;30.02;7.15;;;;;;;;;;5056258;28;20085;-65
2022/03/27 06:37:50;;;;;;;26.25;6.75;;;;;;;;;;5057007;28;20052;-65
2022/03/27 06:40:16;;;;;;;27.48;7.40;;;;;;;;;;5055667;28;20033;-64
2022/03/27 06:42:45;;;;;;;23.52;6.85;;;;;;;;;;5039744;28;20099;-65
2022/03/27 06:45:12;;;;;;;24.25;7.43;;;;;;;;;;5039529;28;20049;-64
2022/03/27 06:47:38;;;;;;;19.50;7.25;;;;;;;;;;5055221;28;20358;-65
2022/03/27 06:50:05;;;;;;;32.83;7.93;;;;;;;;;;5057041;28;20040;-65
2022/03/27 06:52:31;;;;;;;23.48;6.85;;;;;;;;;;5053622;28;20513;-65
2022/03/27 06:54:58;;;;;;;26.03;7.90;;;;;;;;;;5055862;28;20457;-64
2022/03/27 06:57:24;;;;;;;22.98;7.78;;;;;;;;;;5056017;28;20064;-65
2022/03/27 07:05:22;;;;;;;33.72;8.48;;;;;;;;;;5074824;28;20049;-65
2022/03/27 07:07:48;;;;;;;26.00;6.90;;;;;;;;;;5076495;28;20040;-64
2022/03/27 07:10:14;;;;;;;34.95;8.63;;;;;;;;;;5059783;28;20040;-62
2022/03/27 07:12:42;;;;;;;30.80;7.80;;;;;;;;;;5055121;28;20084;-65
2022/03/27 07:15:08;;;;;;;31.33;8.23;;;;;;;;;;5037563;28;20098;-61
2022/03/27 07:17:43;;;;;;;25.65;7.05;;;;;;;;;;5055031;28;20037;-62
2022/03/27 07:20:09;;;;;;;30.45;9.13;;;;;;;;;;5053900;28;20063;-62
2022/03/27 07:22:35;;;;;;;39.30;8.18;;;;;;;;;;5055275;28;20155;-62
2022/03/27 07:25:02;;;;;;;29.83;6.80;;;;;;;;;;5055395;28;20041;-62
2022/03/27 07:27:28;;;;;;;37.00;7.65;;;;;;;;;;5056130;28;20041;-62
2022/03/27 07:29:54;;;;;;;35.85;7.85;;;;;;;;;;5050109;28;20138;-64
2022/03/27 07:32:20;;;;;;;39.10;9.25;;;;;;;;;;5056002;28;20044;-59
2022/03/27 07:34:46;;;;;;;36.30;7.07;;;;;;;;;;5054996;28;20052;-59
2022/03/27 07:37:13;;;;;;;37.40;8.00;;;;;;;;;;5054548;28;20436;-58
2022/03/27 07:39:39;;;;;;;44.50;8.30;;;;;;;;;;5055771;28;20049;-58
2022/03/27 07:42:05;;;;;;;36.30;7.63;;;;;;;;;;5038125;28;20103;-58
2022/03/27 07:44:31;;;;;;;47.60;8.07;;;;;;;;;;5037222;28;20064;-59
2022/03/27 07:46:59;;;;;;;39.63;8.85;;;;;;;;;;5044761;28;20063;-59
2022/03/27 07:49:25;;;;;;;48.30;10.52;;;;;;;;;;5034668;28;20045;-60
2022/03/27 07:51:52;;;;;;;39.65;9.63;;;;;;;;;;5051025;28;20076;-59
2022/03/27 07:54:19;;;;;;;37.55;7.25;;;;;;;;;;5035719;28;20064;-59
2022/03/27 07:56:45;;;;;;;44.80;9.20;;;;;;;;;;5038509;28;20083;-68
2022/03/27 07:59:11;;;;;;;36.17;9.07;;;;;;;;;;5054461;28;20048;-61
2022/03/27 08:01:41;;;;;;;44.85;7.32;;;;;;;;;;5039212;28;20082;-61
2022/03/27 08:04:07;;;;;;;38.10;6.93;;;;;;;;;;5055425;28;20052;-62
2022/03/27 08:06:36;;;;;;;36.83;7.68;;;;;;;;;;5053871;28;20492;-61
2022/03/27 08:09:06;;;;;;;39.15;7.30;;;;;;;;;;5055226;28;20071;-60
2022/03/27 08:11:35;;;;;;;35.40;7.70;;;;;;;;;;5055219;28;20045;-62
2022/03/27 08:14:01;;;;;;;34.35;7.97;;;;;;;;;;5055990;28;20052;-62
2022/03/27 08:16:27;;;;;;;42.58;8.18;;;;;;;;;;5055018;28;20046;-62
2022/03/27 08:18:54;;;;;;;38.10;8.38;;;;;;;;;;5037212;28;20136;-63
2022/03/27 08:21:20;;;;;;;29.00;7.22;;;;;;;;;;5055116;28;20048;-62
2022/03/27 08:23:46;;;;;;;31.20;7.18;;;;;;;;;;5054973;28;20496;-62
2022/03/27 08:28:56;;;;;;;29.90;7.43;;;;;;;;;;5035833;28;20049;-63
2022/03/27 08:31:22;;;;;;;37.38;7.88;;;;;;;;;;5033761;28;20041;-64
2022/03/27 08:33:49;;;;;;;32.40;7.95;;;;;;;;;;5041678;28;20043;-64
2022/03/27 08:36:15;;;;;;;32.95;7.35;;;;;;;;;;5054758;28;20045;-61
2022/03/27 08:38:41;;;;;;;36.03;6.85;;;;;;;;;;5037199;28;20651;-68
2022/03/27 09:07:04;;;;;;;29.08;6.72;;;;;;;;;;4932465;29;20067;-61
2022/03/27 09:09:35;;;;;;;26.15;5.47;;;;;;;;;;4934768;29;20078;-59
2022/03/27 09:12:02;;;;;;;;;;;;;;;;;;4933933;29;20048;-62
2022/03/27 09:14:29;;;;;;;28.30;5.63;;;;;;;;;;4922061;29;19929;-61
2022/03/27 09:17:03;;;;;;;28.45;5.70;;;;;;;;;;4917056;29;20439;-61
2022/03/27 09:19:39;;;;;;;35.22;7.60;;;;;;;;;;4918693;29;20063;-62
2022/03/27 09:22:14;;;;;;;36.42;7.35;;;;;;;;;;4916701;29;20126;-59
2022/03/27 09:24:40;;;;;;;26.08;6.47;;;;;;;;;;4932853;29;20603;-63
2022/03/27 09:27:07;;;;;;;26.70;5.50;;;;;;;;;;4933526;29;20091;-60
2022/03/27 09:29:55;;;;;;;32.72;6.15;;;10.90;99.90;;;;;;4934094;29;20090;-60
2022/03/27 09:32:28;;;;;;;25.70;4.88;;;;;;;;;;4916947;29;20043;-60
2022/03/27 09:34:57;;;;;;;23.50;4.30;;;;;;;;;;4933291;29;20050;-60
2022/03/27 09:37:31;;;;;;;33.78;6.20;;;;;;;;;;4930724;29;20039;-60
2022/03/27 09:39:57;;;;;;;26.27;5.03;;;;;;;;;;4916788;29;20071;-60
2022/03/27 09:42:24;;;;;;;28.65;5.38;;;;;;;;;;4900961;29;20083;-60
2022/03/27 09:45:08;;;;;;;27.38;6.30;;;;;;;;;;4916491;29;20466;-61
2022/03/27 09:47:34;;;;;;;28.48;4.80;;;;;;;;;;4917050;29;20047;-62
2022/03/27 09:50:01;;;;;;;24.35;4.82;;;;;;;;;;4933632;29;20051;-62
2022/03/27 09:52:27;;;;;;;19.60;4.60;;;;;;;;;;4915622;29;20079;-65
2022/03/27 09:54:53;;;;;;;27.55;6.40;;;;;;;;;;4933046;29;20043;-62
2022/03/27 09:57:24;;;;;;;26.77;4.47;;;;;;;;;;4916291;29;20448;-63
2022/03/27 09:59:51;;;;;;;19.42;4.70;;;;;;;;;;4933599;29;20043;-62
2022/03/27 10:02:20;;;;;;;24.48;4.72;;;;;;;;;;4900872;29;20458;-60
2022/03/27 10:04:56;;;;;;;21.95;3.90;;;;;;;;;;4933630;29;20116;-60
2022/03/27 10:07:24;;;;;;;24.60;4.22;;;;;;;;;;4932197;29;20056;-62
2022/03/27 10:09:51;;;;;;;30.02;4.65;;;;;;;;;;4932921;29;20146;-63
2022/03/27 10:12:17;;;;;;;19.60;4.13;;;;;;;;;;4933532;29;20090;-64
2022/03/27 10:14:47;;;;;;;27.85;6.95;;;;;;;;;;4900633;29;20369;-63
2022/03/27 10:17:13;;;;;;;25.13;4.50;;;;;;;;;;4914924;29;20435;-63
2022/03/27 10:19:44;;;;;;;21.02;4.60;;;;;;;;;;4915068;29;20488;-64
2022/03/27 10:22:12;;;;;;;23.52;5.43;;;;;;;;;;4933554;29;20079;-62
2022/03/27 10:24:39;;;;;;;22.23;4.18;;;;;;;;;;4933837;29;20044;-62
2022/03/27 10:27:06;;;;;;;22.38;4.75;;;;;;;;;;4900812;29;20043;-62
2022/03/27 10:29:33;;;;;;;23.10;4.68;;;;;;;;;;4916548;29;20138;-63
2022/03/27 10:32:02;;;;;;;25.92;5.22;;;;;;;;;;4916364;29;20047;-63
2022/03/27 10:34:30;;;;;;;19.30;4.20;;;;;;;;;;4916484;29;20095;-63
2022/03/27 10:37:03;;;;;;;20.70;4.28;;;;;;;;;;4933297;29;20040;-64
2022/03/27 10:39:37;;;;;;;30.50;5.13;;;;;;;;;;4916612;29;20056;-64
2022/03/27 10:42:12;;;;;;;21.65;3.97;;;;;;;;;;4933302;29;20044;-63
2022/03/27 10:44:40;;;;;;;21.13;4.50;;;;;;;;;;4915699;29;20047;-63
2022/03/27 10:47:14;;;;;;;19.90;3.85;;;;;;;;;;4915503;29;20055;-62
2022/03/27 10:49:41;;;;;;;22.95;4.63;;;;;;;;;;4900627;29;20128;-63
2022/03/27 10:52:08;;;;;;;20.17;4.28;;;;;;;;;;4916073;29;20053;-63
2022/03/27 10:54:54;;;;;;;22.90;4.88;;;;;;;;;;4916474;29;20392;-62
2022/03/27 10:57:36;;;;;;;18.05;4.25;;;;;;;;;;4914865;29;20179;-65
2022/03/27 11:00:04;;;;;;;19.52;3.95;;;;;;;;;;4932711;29;20044;-65
2022/03/27 11:02:45;;;;;;;18.65;3.38;;;;;;;;;;4915519;29;20082;-66
2022/03/27 11:05:35;;;;;;;22.08;4.03;;;;;;;;;;4921535;29;20063;-62
2022/03/27 11:08:19;;;;;;;19.08;4.10;;;;;;;;;;4885344;29;20040;-62
2022/03/27 11:10:54;;;;;;;27.08;5.00;;;;;;;;;;4915744;29;20048;-59
2022/03/27 11:13:26;;;;;;;19.30;3.63;;;;;;;;;;4899890;29;20526;-60
2022/03/27 11:16:08;;;;;;;22.85;4.80;;;;;;;;;;4918557;29;20048;-58
2022/03/27 11:18:35;;;;;;;17.48;4.60;;;;;;;;;;4916431;29;20044;-62
2022/03/27 11:21:02;;;;;;;15.55;4.10;;;;;;;;;;4903300;29;20052;-61
2022/03/27 11:23:29;;;;;;;19.45;4.50;;;;;;;;;;4886835;29;20132;-61
2022/03/27 11:25:55;;;;;;;15.65;3.17;;;;;;;;;;4886148;29;20059;-61
2022/03/27 11:28:22;;;;;;;19.80;4.03;;;;;;;;;;4918616;29;20131;-61
2022/03/27 11:30:48;;;;;;;18.90;5.50;;;;;;;;;;4901914;29;20055;-62
2022/03/27 11:33:20;;;;;;;17.20;3.70;;;;;;;;;;4901585;29;20045;-61
2022/03/27 11:36:01;;;;;;;15.32;3.30;;;;;;;;;;4917335;29;20385;-61
2022/03/27 11:38:31;;;;;;;17.88;3.08;;;;;;;;;;4912422;29;20048;-61
2022/03/27 11:40:58;;;;;;;14.73;2.85;;;;;;;;;;4918835;29;20115;-62
2022/03/27 11:43:30;;;;;;;16.77;3.40;;;;;;;;;;4904126;29;20135;-62
2022/03/27 11:45:57;;;;;;;16.10;3.40;;;;;;;;;;4917774;29;20068;-62
2022/03/27 11:48:23;;;;;;;11.88;3.60;;;;;;;;;;4903951;29;20079;-62
2022/03/27 11:50:49;;;;;;;16.38;2.83;;;;;;;;;;4917775;29;20107;-61
2022/03/27 11:53:16;;;;;;;13.05;3.25;;;;;;;;;;4917955;29;20052;-62
2022/03/27 11:55:42;;;;;;;16.80;3.42;;;;;;;;;;4900912;29;20047;-59
2022/03/27 11:58:10;;;;;;;16.55;3.75;;;;;;;;;;4900944;29;20484;-59
2022/03/27 12:00:41;;;;;;;11.82;2.92;;;;;;;;;;4901034;29;20063;-59
2022/03/27 12:03:23;;;;;;;15.35;3.55;;;;;;;;;;4901088;29;20044;-62
2022/03/27 12:05:50;;;;;;;15.23;2.95;;;;;;;;;;4916389;29;20087;-61
2022/03/27 12:08:17;;;;;;;12.93;3.05;;;;;;;;;;4918032;29;20137;-62
2022/03/27 12:10:49;;;;;;;14.48;3.30;;;;;;;;;;4917804;29;20052;-62
2022/03/27 12:13:15;;;;;;;18.67;3.13;;;;;;;;;;4917837;29;20409;-62
2022/03/27 12:15:52;;;;;;;12.43;2.35;;;;;;;;;;4899601;29;20131;-61
2022/03/27 12:18:28;;;;;;;11.60;3.10;;;;;;;;;;4900520;29;20127;-62
2022/03/27 12:20:54;;;;;;;13.43;2.67;;;;;;;;;;4917561;29;20055;-60
2022/03/27 12:23:28;;;;;;;13.02;3.17;;;;;;;;;;4900767;29;20390;-61
2022/03/27 12:26:04;;;;;;;14.43;2.95;;;;;;;;;;4899969;29;20040;-60
2022/03/27 12:31:19;;;;;;;15.30;3.38;;;;;;;;;;4917380;29;20414;-61
2022/03/27 12:33:46;;;;;;;11.73;3.95;;;;;;;;;;4916994;29;20393;-60
2022/03/27 12:36:13;;;;;;;9.48;2.38;;;;;;;;;;4899772;29;20044;-60
2022/03/27 12:38:39;;;;;;;7.85;2.30;;;;;;;;;;4917050;29;20056;-60
2022/03/27 12:41:10;;;;;;;17.23;3.05;;;;;;;;;;4917365;29;20126;-60
2022/03/27 12:43:41;;;;;;;14.40;3.42;;;;;;;;;;4917250;29;20452;-60
2022/03/27 12:46:20;;;;;;;11.00;3.35;;;;;;;;;;4899967;29;20416;-61
2022/03/27 12:49:08;;;;;;;11.95;2.78;;;;;;;;;;4900389;29;20056;-61
2022/03/27 12:51:34;;;;;;;14.88;2.88;;;;;;;;;;4900407;29;20080;-62
2022/03/27 12:54:02;;;;;;;14.65;3.20;;;;;;;;;;4900375;29;20400;-61
2022/03/27 12:56:28;;;;;;;14.55;3.97;;;;;;;;;;4914849;29;20123;-61
2022/03/27 12:58:55;;;;;;;14.57;3.67;;;;;;;;;;4916927;29;20062;-61
2022/03/27 13:01:25;;;;;;;17.73;3.88;;;;;;;;;;4899823;29;20048;-62
2022/03/27 13:04:08;;;;;;;16.08;2.65;;;;;;;;;;4900086;29;20047;-61
2022/03/27 13:06:35;;;;;;;15.05;2.90;;;;;;;;;;4916163;29;20481;-61
2022/03/27 13:09:03;;;;;;;14.63;3.10;;;;;;;;;;4900078;29;20115;-61
2022/03/27 13:11:29;;;;;;;13.80;3.10;;;;;;;;;;4916711;29;20044;-63
2022/03/27 13:14:00;;;;;;;12.60;2.50;;;;;;;;;;4915428;29;20138;-62
2022/03/27 13:16:33;;;;;;;18.48;3.80;;;;;;;;;;4915898;29;20055;-60
2022/03/27 13:19:08;;;;;;;10.40;2.22;;;;;;;;;;4900035;29;20087;-61
2022/03/27 13:21:35;;;;;;;12.70;2.50;;;;;;;;;;4899592;29;20052;-62
2022/03/27 13:24:01;;;;;;;14.35;3.28;;;;;;;;;;4916408;29;20131;-62
2022/03/27 13:26:28;;;;;;;14.52;3.15;;;;;;;;;;4898965;29;20055;-61
2022/03/27 13:28:54;;;;;;;10.15;2.88;;;;;;;;;;4915413;29;20068;-64
2022/03/27 13:31:21;;;;;;;15.65;3.20;;;;;;;;;;4916399;29;20051;-61
2022/03/27 13:33:48;;;;;;;11.63;2.78;;;;;;;;;;4899614;29;20055;-62
2022/03/27 13:36:14;;;;;;;12.85;2.67;;;;;;;;;;4899275;29;20051;-61
2022/03/27 13:38:40;;;;;;;15.52;3.03;;;;;;;;;;4899472;29;20052;-62
2022/03/27 13:43:52;;;;;;;12.52;3.40;;;;;;;;;;4899680;29;20055;-62
2022/03/27 13:46:18;;;;;;;12.75;2.78;;;;;;;;;;4915781;29;20072;-62
2022/03/27 13:48:44;;;;;;;16.13;3.00;;;;;;;;;;4916257;29;20056;-62
2022/03/27 13:51:10;;;;;;;12.25;3.03;;;;;;;;;;4916118;29;20108;-61
2022/03/27 13:53:36;;;;;;;14.63;2.85;;;;;;;;;;4899412;29;20138;-61
2022/03/27 13:56:02;;;;;;;14.02;2.78;;;;;;;;;;4899321;29;20052;-61
2022/03/27 13:58:28;;;;;;;13.60;3.03;;;;;;;;;;4899664;29;20139;-61
2022/03/27 14:00:54;;;;;;;17.27;2.70;;;;;;;;;;4915066;29;20052;-62
2022/03/27 14:03:21;;;;;;;12.50;2.65;;;;;;;;;;4916106;29;20044;-61
2022/03/27 14:05:47;;;;;;;15.25;3.13;;;;;;;;;;4906963;29;20062;-61
2022/03/27 14:08:13;;;;;;;14.38;3.40;;;;;;;;;;4934975;29;20047;-61
2022/03/27 14:10:40;;;;;;;12.45;2.92;;;;;;;;;;4918204;29;20059;-61
2022/03/27 14:13:06;;;;;;;15.13;3.33;;;;;;;;;;4918350;29;20560;-61
2022/03/27 14:15:32;;;;;;;15.27;2.70;;;;;;;;;;4917962;29;20051;-61
2022/03/27 14:17:58;;;;;;;13.38;3.03;;;;;;;;;;4918084;29;20047;-61
2022/03/27 14:20:24;;;;;;;12.70;3.72;;;;;;;;;;4917880;29;20514;-61
2022/03/27 14:22:50;;;;;;;18.27;2.63;;;;;;;;;;4934780;29;20044;-61
2022/03/27 14:25:16;;;;;;;12.82;2.95;;;;;;;;;;4917472;29;20450;-61
2022/03/27 14:27:46;;;;;;;11.98;2.50;;;;;;;;;;4933506;29;20048;-60
2022/03/27 14:30:14;;;;;;;14.40;3.15;;;;;;;;;;4917987;29;20103;-60
2022/03/27 14:32:41;;;;;;;10.40;2.17;;;;;;;;;;4902279;29;20059;-61
2022/03/27 14:35:08;;;;;;;13.02;2.55;;;;;;;;;;4917333;29;20538;-61
2022/03/27 14:37:36;;;;;;;11.07;2.33;;;;;;;;;;4934785;29;20060;-60
2022/03/27 14:40:03;;;;;;;17.35;3.05;;;;;;;;;;4919692;29;20047;-60
2022/03/27 14:42:29;;;;;;;18.33;3.25;;;;;;;;;;4921440;29;20071;-59
2022/03/27 14:44:55;;;;;;;11.52;2.88;;;;;;;;;;4938158;29;20093;-59
2022/03/27 14:47:21;;;;;;;16.15;2.67;;;;;;;;;;4920937;29;20095;-60
2022/03/27 14:49:50;;;;;;;17.25;2.72;;;;;;;;;;4920536;29;20126;-60
2022/03/27 14:52:16;;;;;;;12.70;2.83;;;;;;;;;;4939413;29;20044;-60
2022/03/27 14:57:27;;;;;;;12.48;3.00;;;;;;;;;;4921144;29;20052;-60
2022/03/27 14:59:53;;;;;;;12.27;2.47;;;;;;;;;;4905407;29;20055;-60
2022/03/27 15:02:20;;;;;;;14.60;3.17;;;;;;;;;;4937609;29;20055;-60
2022/03/27 15:04:48;;;;;;;14.85;3.58;;;;;;;;;;4937833;29;20055;-60
2022/03/27 15:07:15;;;;;;;16.30;3.60;;;;;;;;;;4937845;29;20412;-60
2022/03/27 15:09:41;;;;;;;9.88;2.30;;;;;;;;;;4921125;29;20043;-59
2022/03/27 15:12:08;;;;;;;18.85;3.53;;;;;;;;;;4938416;29;20539;-61
2022/03/27 15:14:34;;;;;;;15.95;3.13;;;;;;;;;;4936493;29;20039;-60
2022/03/27 15:17:00;;;;;;;18.88;3.58;;;;;;;;;;4943526;29;20048;-61